Main page
METAR-TAF:

METAR-TAF

Airports :

Mataveri International Airport

Easter Island, Chile

latitude: 27-09S, longitude: 109-25W, elevation: 51 m

Current weather observation

The report was made 52 minutes ago, at 19:00 UTC
Wind 11 kt from the East
Temperature 22°C
Humidity 60%
Pressure 1029 hPa
Visibility 10 km or more
Few clouds at a height of 2900 ft
Scattered clouds at a height of 4000 ft

METAR: SCIP 281900Z 09011KT 9999 FEW029 SCT040 22/14 Q1029 NOSIG

Time: 13:52 (19:52 UTC)

Forecast

The report was made 3 hours and 2 minutes ago, at 16:50 UTC
Forecast valid from 28 at 18 UTC to 29 at 18 UTC
Wind 15 kt from the East
Visibility 10 km or more
Few clouds at a height of 2500 ft
Scattered clouds at a height of 4000 ft
Becoming
from 28 at 22 UTC to 29 at 00 UTC
Wind 10 kt from the East
Scattered clouds at a height of 1500 ft
Broken clouds at a height of 3000 ft

TAF: SCIP 281650Z 2818/2918 10015KT 9999 FEW025 SCT040 TX22/2818Z TN18/2910Z BECMG 2822/2900 09010KT SCT015 BKN030

Weather observations and forecasts of more than 4000 airports (METAR and TAF reports).

The available stations are represented by yellow and red dots on the map.

Hover mouse over dot to see the name of the station.

Then click to see weather observations and forecasts.

To change the map : click on the green buttons with a black cross to zoom in, on the green button with a dash to zoom out, or on the green arrows for adjacent maps.


METAR-TAF: